Time;durP1;ratioP1;P1;durP2;ratioP2;P2;SDS_P1;SDS_P2;PMS_P1;PMS_P2;Temp;Humidity;BMP_temperature;BMP_pressure;BME280_temperature;BME280_humidity;BME280_pressure;Samples;Min_cycle;Max_cycle;Signal;HPM_P1;HPM_P2
2022/09/01 00:00:52;;;;;;;26.60;24.20;;;14.60;99.90;;;;;;5059227;28;20213;-77
2022/09/01 00:03:23;;;;;;;25.10;23.20;;;14.60;99.90;;;;;;5058319;28;20182;-77
2022/09/01 00:05:54;;;;;;;23.07;21.03;;;14.60;99.90;;;;;;5059038;28;20184;-77
2022/09/01 00:08:21;;;;;;;20.97;19.20;;;14.60;99.90;;;;;;5057650;28;20182;-77
2022/09/01 00:10:47;;;;;;;19.50;18.00;;;14.70;99.90;;;;;;5056923;28;20265;-77
2022/09/01 00:13:13;;;;;;;19.43;17.83;;;14.60;99.90;;;;;;5055990;28;20541;-77
2022/09/01 00:15:39;;;;;;;20.83;19.27;;;14.60;99.90;;;;;;5057287;28;20181;-77
2022/09/01 00:18:05;;;;;;;21.27;19.50;;;14.60;99.90;;;;;;5055612;28;20202;-77
2022/09/01 00:20:31;;;;;;;20.47;18.70;;;14.50;99.90;;;;;;5055949;28;20217;-77
2022/09/01 00:22:59;;;;;;;19.90;18.40;;;14.50;99.90;;;;;;5057679;28;20214;-78
2022/09/01 00:25:26;;;;;;;19.33;17.47;;;14.50;99.90;;;;;;5061406;28;20182;-77
2022/09/01 00:27:53;;;;;;;18.97;17.00;;;14.50;99.90;;;;;;5064029;28;20209;-77
2022/09/01 00:30:20;;;;;;;17.50;16.10;;;14.50;99.90;;;;;;5058360;28;20190;-77
2022/09/01 00:32:46;;;;;;;18.13;16.40;;;14.40;99.90;;;;;;5057314;28;20186;-77
2022/09/01 00:35:16;;;;;;;17.53;16.13;;;14.40;99.90;;;;;;5057431;28;20313;-77
2022/09/01 00:37:42;;;;;;;18.90;17.40;;;14.30;99.90;;;;;;5055524;28;20209;-77
2022/09/01 00:40:11;;;;;;;19.87;18.10;;;14.30;99.90;;;;;;5056695;28;20210;-77
2022/09/01 00:42:39;;;;;;;16.77;15.47;;;14.30;99.90;;;;;;5056212;28;20819;-77
2022/09/01 00:45:07;;;;;;;15.37;13.90;;;14.20;99.90;;;;;;5056342;28;20171;-77
2022/09/01 00:47:34;;;;;;;16.73;15.33;;;14.30;99.90;;;;;;5064367;28;20198;-77
2022/09/01 00:50:02;;;;;;;17.10;15.63;;;14.20;99.90;;;;;;5064663;28;20186;-77
2022/09/01 00:52:37;;;;;;;16.60;15.13;;;14.20;99.90;;;;;;5063092;28;20182;-77
2022/09/01 00:55:11;;;;;;;17.40;16.00;;;14.20;99.90;;;;;;5058610;28;20209;-76
2022/09/01 00:57:38;;;;;;;17.47;16.07;;;14.30;99.90;;;;;;5061712;28;20214;-76
2022/09/01 01:00:13;;;;;;;17.20;15.80;;;14.20;99.90;;;;;;5060534;28;20225;-77
2022/09/01 01:02:40;;;;;;;17.50;15.90;;;14.20;99.90;;;;;;5057183;28;20603;-77
2022/09/01 01:05:07;;;;;;;18.33;16.63;;;14.10;99.90;;;;;;5056161;28;20183;-77
2022/09/01 01:07:43;;;;;;;18.47;16.97;;;14.00;99.90;;;;;;5055057;28;20244;-77
2022/09/01 01:10:14;;;;;;;18.63;16.73;;;14.00;99.90;;;;;;5056232;28;20693;-77
2022/09/01 01:12:42;;;;;;;18.27;16.43;;;14.00;99.90;;;;;;5051315;28;20270;-78
2022/09/01 01:15:12;;;;;;;18.77;17.30;;;14.00;99.90;;;;;;5035063;28;20293;-77
2022/09/01 01:17:38;;;;;;;18.23;16.53;;;13.90;99.90;;;;;;5047044;28;20209;-77
2022/09/01 01:23:01;;;;;;;24.60;22.60;;;13.90;99.90;;;;;;5055458;28;20178;-77
2022/09/01 01:25:41;;;;;;;23.97;22.27;;;13.80;99.90;;;;;;5055037;28;20224;-77
2022/09/01 01:28:21;;;;;;;29.53;27.53;;;13.90;99.90;;;;;;5053714;28;20641;-77
2022/09/01 01:30:53;;;;;;;27.73;25.93;;;13.80;99.90;;;;;;5052472;28;20240;-77
2022/09/01 01:33:22;;;;;;;26.73;24.93;;;13.80;99.90;;;;;;5055508;28;20258;-77
2022/09/01 01:35:50;;;;;;;21.13;19.53;;;13.80;99.90;;;;;;5055341;28;20213;-77
2022/09/01 01:38:19;;;;;;;25.53;23.63;;;13.90;99.90;;;;;;5054946;28;20182;-77
2022/09/01 01:40:45;;;;;;;29.00;27.03;;;13.90;99.90;;;;;;5055159;28;20206;-77
2022/09/01 01:43:18;;;;;;;28.23;25.73;;;13.90;99.90;;;;;;5055356;28;20604;-77
2022/09/01 01:45:47;;;;;;;28.93;26.80;;;13.90;99.90;;;;;;5055676;28;20194;-77
2022/09/01 01:48:21;;;;;;;26.60;24.47;;;13.80;99.90;;;;;;5053126;28;20198;-77
2022/09/01 01:50:48;;;;;;;34.03;31.77;;;13.70;99.90;;;;;;5054743;28;20663;-77
2022/09/01 01:53:18;;;;;;;27.87;25.83;;;13.70;99.90;;;;;;5054146;28;20270;-77
2022/09/01 01:55:48;;;;;;;21.57;19.97;;;13.80;99.90;;;;;;5054743;28;20278;-77
2022/09/01 01:58:19;;;;;;;23.57;21.73;;;13.80;99.90;;;;;;5062154;28;20213;-77
2022/09/01 02:00:46;;;;;;;24.23;22.27;;;13.80;99.90;;;;;;5056220;28;20217;-77
2022/09/01 02:03:18;;;;;;;20.83;19.03;;;13.80;99.90;;;;;;5055272;28;20182;-77
2022/09/01 02:05:46;;;;;;;39.73;37.07;;;13.80;99.90;;;;;;5054282;28;20185;-77
2022/09/01 02:08:20;;;;;;;48.63;45.63;;;13.70;99.90;;;;;;5053762;28;20213;-77
2022/09/01 02:10:49;;;;;;;34.83;32.53;;;13.70;99.90;;;;;;5056292;28;20182;-77
2022/09/01 02:13:17;;;;;;;41.90;39.23;;;13.70;99.90;;;;;;5055127;28;20246;-77
2022/09/01 02:15:52;;;;;;;32.03;29.83;;;13.70;99.90;;;;;;5055435;28;20191;-77
2022/09/01 02:18:23;;;;;;;35.33;33.00;;;13.60;99.90;;;;;;5063154;28;20189;-77
2022/09/01 02:20:51;;;;;;;30.87;28.63;;;13.60;99.90;;;;;;5059237;28;20244;-77
2022/09/01 02:23:22;;;;;;;21.10;19.20;;;13.60;99.90;;;;;;5053352;28;20190;-77
2022/09/01 02:25:49;;;;;;;23.60;21.93;;;13.50;99.90;;;;;;5053126;28;20265;-77
2022/09/01 02:28:17;;;;;;;29.03;26.90;;;13.50;99.90;;;;;;5053899;28;20674;-77
2022/09/01 02:30:44;;;;;;;27.93;25.80;;;13.50;99.90;;;;;;5053858;28;20693;-77
2022/09/01 02:33:17;;;;;;;27.77;25.90;;;13.50;99.90;;;;;;5051601;28;20182;-77
2022/09/01 02:35:44;;;;;;;28.73;26.60;;;13.50;99.90;;;;;;5053261;28;20324;-77
2022/09/01 02:38:12;;;;;;;42.83;39.83;;;13.40;99.90;;;;;;5057582;28;20194;-77
2022/09/01 02:40:43;;;;;;;61.90;57.93;;;13.40;99.90;;;;;;5059714;28;20786;-77
2022/09/01 02:43:10;;;;;;;37.87;35.30;;;13.40;99.90;;;;;;5059002;28;20179;-77
2022/09/01 02:45:37;;;;;;;42.00;39.10;;;13.30;99.90;;;;;;5059458;28;20177;-77
2022/09/01 02:48:08;;;;;;;33.50;31.20;;;13.30;99.90;;;;;;5056759;28;20610;-78
2022/09/01 02:50:40;;;;;;;28.37;26.40;;;13.30;99.90;;;;;;5067921;28;20211;-78
2022/09/01 02:53:08;;;;;;;50.73;47.73;;;13.40;99.90;;;;;;5069223;28;20182;-78
2022/09/01 02:55:41;;;;;;;65.50;61.50;;;13.20;99.90;;;;;;5054285;28;20187;-77
2022/09/01 02:58:15;;;;;;;46.37;43.53;;;13.10;99.90;;;;;;5043215;28;20215;-78
2022/09/01 03:00:42;;;;;;;42.17;39.40;;;13.00;99.90;;;;;;5038975;28;20565;-77
2022/09/01 03:03:11;;;;;;;27.37;24.97;;;13.00;99.90;;;;;;5057067;28;20177;-77
2022/09/01 03:05:38;;;;;;;19.40;17.90;;;13.00;99.90;;;;;;5057346;28;20257;-77
2022/09/01 03:08:09;;;;;;;21.67;20.07;;;13.00;99.90;;;;;;5056641;28;20198;-78
2022/09/01 03:10:40;;;;;;;20.00;18.50;;;12.90;99.90;;;;;;5058539;28;20186;-78
2022/09/01 03:13:24;;;;;;;25.63;23.57;;;13.00;99.90;;;;;;5059455;28;20273;-78
2022/09/01 03:15:51;;;;;;;30.77;28.57;;;13.00;99.90;;;;;;5060688;28;20186;-77
2022/09/01 03:18:20;;;;;;;31.50;29.30;;;12.90;99.90;;;;;;5068146;28;20595;-78
2022/09/01 03:20:51;;;;;;;29.23;27.23;;;12.90;99.90;;;;;;5059317;28;20204;-77
2022/09/01 03:23:17;;;;;;;33.20;30.93;;;12.90;99.90;;;;;;5058172;28;20631;-77
2022/09/01 03:25:45;;;;;;;36.47;34.17;;;12.90;99.90;;;;;;5056572;28;20182;-77
2022/09/01 03:28:12;;;;;;;31.80;29.50;;;12.90;99.90;;;;;;5060946;28;20233;-77
2022/09/01 03:30:42;;;;;;;26.60;24.57;;;12.90;99.90;;;;;;5055476;28;20174;-76
2022/09/01 03:33:08;;;;;;;27.80;25.67;;;12.90;99.90;;;;;;5055009;28;20182;-77
2022/09/01 03:35:34;;;;;;;27.20;25.23;;;12.90;99.90;;;;;;5059131;28;20646;-77
2022/09/01 03:38:02;;;;;;;35.07;32.80;;;12.90;99.90;;;;;;5052239;28;20581;-77
2022/09/01 03:40:32;;;;;;;35.20;32.77;;;12.80;99.90;;;;;;5062280;28;20216;-77
2022/09/01 03:42:59;;;;;;;36.43;34.03;;;12.80;99.90;;;;;;5060902;28;20273;-77
2022/09/01 03:45:26;;;;;;;38.80;36.30;;;12.80;99.90;;;;;;5053309;28;20186;-77
2022/09/01 03:47:53;;;;;;;39.87;37.10;;;12.80;99.90;;;;;;5053188;28;20201;-77
2022/09/01 03:50:24;;;;;;;37.20;34.70;;;12.80;99.90;;;;;;5053991;28;20557;-77
2022/09/01 03:52:53;;;;;;;38.37;35.87;;;12.80;99.90;;;;;;5053666;28;20724;-76
2022/09/01 03:55:22;;;;;;;39.60;37.17;;;12.80;99.90;;;;;;5055337;28;20190;-77
2022/09/01 03:57:53;;;;;;;46.40;43.23;;;12.90;99.90;;;;;;5052468;28;20225;-76
2022/09/01 04:00:21;;;;;;;42.70;40.00;;;12.80;99.90;;;;;;5052730;28;20217;-76
2022/09/01 04:02:56;;;;;;;39.03;36.40;;;12.80;99.90;;;;;;5051805;28;20182;-76
2022/09/01 04:05:27;;;;;;;47.90;44.90;;;12.90;99.90;;;;;;5053711;28;20196;-76
2022/09/01 04:07:55;;;;;;;41.80;38.73;;;12.90;99.90;;;;;;5052443;28;20209;-77
2022/09/01 04:10:22;;;;;;;33.90;31.23;;;13.10;99.90;;;;;;5053744;28;20186;-77
2022/09/01 04:12:49;;;;;;;38.73;36.07;;;13.10;99.90;;;;;;5043572;28;20190;-77
2022/09/01 04:15:17;;;;;;;60.50;56.57;;;13.20;99.90;;;;;;5033787;28;20551;-77
2022/09/01 04:20:28;;;;;;;54.80;51.07;;;13.40;99.90;;;;;;5034262;28;20213;-77
2022/09/01 04:22:56;;;;;;;50.43;46.80;;;13.40;99.90;;;;;;5033577;28;20654;-76
2022/09/01 04:25:25;;;;;;;19.07;17.37;;;13.40;99.90;;;;;;5033504;28;20183;-76
2022/09/01 04:27:55;;;;;;;23.93;22.03;;;13.40;99.90;;;;;;5031956;28;20233;-77
2022/09/01 04:30:25;;;;;;;24.97;22.93;;;13.40;99.90;;;;;;5032359;28;20183;-77
2022/09/01 04:32:54;;;;;;;32.00;29.03;;;13.40;99.90;;;;;;5034569;28;20266;-77
2022/09/01 04:35:26;;;;;;;35.50;33.00;;;13.40;99.90;;;;;;5032932;28;20194;-70
2022/09/01 04:37:52;;;;;;;30.23;27.77;;;13.40;99.90;;;;;;5030553;28;20222;-70
2022/09/01 04:40:22;;;;;;;27.33;24.83;;;13.50;99.90;;;;;;5031949;28;20218;-70
2022/09/01 04:42:49;;;;;;;29.27;26.83;;;13.60;99.90;;;;;;5032332;28;20193;-68
2022/09/01 04:45:15;;;;;;;34.07;31.47;;;13.70;99.90;;;;;;5031320;28;20936;-69
2022/09/01 04:47:41;;;;;;;38.80;36.00;;;13.80;99.90;;;;;;5031348;28;20210;-69
2022/09/01 04:50:13;;;;;;;54.70;51.10;;;13.90;99.90;;;;;;5050139;28;20206;-69
2022/09/01 04:52:40;;;;;;;46.73;43.50;;;14.00;99.90;;;;;;5051059;28;20514;-69
2022/09/01 04:55:16;;;;;;;29.50;27.07;;;14.10;99.90;;;;;;5051346;28;20182;-69
2022/09/01 04:57:48;;;;;;;105.67;99.40;;;14.10;99.90;;;;;;5049780;28;20308;-71
2022/09/01 05:00:22;;;;;;;201.90;190.50;;;14.20;99.90;;;;;;5049672;28;20264;-71
2022/09/01 05:02:51;;;;;;;177.57;167.33;;;14.30;99.90;;;;;;5051122;28;20733;-71
2022/09/01 05:05:19;;;;;;;99.57;93.87;;;14.40;99.90;;;;;;5054201;28;20178;-70
2022/09/01 05:07:51;;;;;;;56.43;52.77;;;14.40;99.90;;;;;;5050947;28;20581;-71
2022/09/01 05:10:21;;;;;;;81.93;76.87;;;14.40;99.90;;;;;;5051736;28;20182;-71
2022/09/01 05:12:48;;;;;;;155.93;146.97;;;14.40;99.90;;;;;;5051656;28;20193;-71
2022/09/01 05:15:16;;;;;;;69.37;65.20;;;14.50;99.90;;;;;;5050518;28;20193;-71
2022/09/01 05:17:42;;;;;;;29.87;27.10;;;14.60;99.90;;;;;;5050571;28;20272;-70
2022/09/01 05:20:10;;;;;;;24.47;22.27;;;14.60;99.90;;;;;;5050251;28;20626;-70
2022/09/01 05:22:39;;;;;;;53.03;49.27;;;14.70;99.90;;;;;;5050650;28;20265;-71
2022/09/01 05:25:12;;;;;;;25.27;23.30;;;14.80;99.90;;;;;;5050123;28;20182;-70
2022/09/01 05:27:40;;;;;;;21.33;19.03;;;14.90;99.90;;;;;;5050460;28;20212;-71
2022/09/01 05:30:10;;;;;;;21.47;19.63;;;15.00;99.90;;;;;;5052556;28;20183;-71
2022/09/01 05:32:38;;;;;;;24.23;22.23;;;15.00;99.90;;;;;;5051518;28;20703;-71
2022/09/01 05:35:08;;;;;;;24.80;22.70;;;15.10;99.90;;;;;;5051103;28;20327;-71
2022/09/01 05:37:37;;;;;;;24.43;22.53;;;15.10;99.90;;;;;;5048454;28;20232;-70
2022/09/01 05:40:06;;;;;;;23.47;21.50;;;15.20;99.90;;;;;;5041666;28;20206;-78
2022/09/01 05:42:32;;;;;;;21.03;18.97;;;15.20;99.90;;;;;;5036065;28;20190;-78
2022/09/01 05:45:00;;;;;;;18.70;16.57;;;15.30;99.90;;;;;;5035382;28;20179;-78
2022/09/01 05:47:27;;;;;;;18.87;16.97;;;15.40;99.90;;;;;;5030351;28;20202;-77
2022/09/01 05:49:55;;;;;;;19.67;17.63;;;15.40;99.90;;;;;;5031849;28;20273;-78
2022/09/01 05:52:23;;;;;;;19.57;17.57;;;15.50;99.90;;;;;;5030855;28;20187;-78
2022/09/01 05:54:50;;;;;;;18.37;16.57;;;15.60;99.90;;;;;;5032153;28;20530;-77
2022/09/01 05:57:18;;;;;;;16.77;15.13;;;15.70;99.90;;;;;;5029286;28;20295;-77
2022/09/01 05:59:45;;;;;;;18.53;16.53;;;15.70;99.90;;;;;;5031169;28;20214;-78
2022/09/01 06:02:11;;;;;;;19.30;17.40;;;15.80;99.90;;;;;;5032128;28;20666;-78
2022/09/01 06:04:42;;;;;;;18.50;16.70;;;15.90;99.90;;;;;;5032031;28;20262;-77
2022/09/01 06:07:13;;;;;;;22.47;19.33;;;16.10;99.90;;;;;;5030507;28;20210;-77
2022/09/01 06:09:41;;;;;;;143.83;135.87;;;16.30;99.90;;;;;;5030874;28;20426;-77
2022/09/01 06:12:16;;;;;;;189.57;179.43;;;16.40;99.90;;;;;;5033234;28;20210;-77
2022/09/01 06:14:43;;;;;;;81.40;76.40;;;16.80;99.90;;;;;;5035950;28;20742;-77
2022/09/01 06:17:10;;;;;;;37.07;34.47;;;17.30;99.90;;;;;;5033659;28;20213;-77
2022/09/01 06:19:38;;;;;;;24.10;21.97;;;17.80;99.90;;;;;;5034342;28;20249;-78
2022/09/01 06:22:05;;;;;;;31.27;28.87;;;18.30;99.90;;;;;;5035623;28;20241;-77
2022/09/01 06:24:31;;;;;;;42.63;39.80;;;18.90;99.90;;;;;;5036162;28;20251;-78
2022/09/01 06:26:58;;;;;;;54.77;50.97;;;19.50;99.90;;;;;;5034611;28;20277;-78
2022/09/01 06:29:24;;;;;;;34.50;32.20;;;20.00;99.90;;;;;;5036418;28;20193;-78
2022/09/01 06:31:51;;;;;;;30.03;27.90;;;20.30;99.90;;;;;;5038969;28;20793;-78
2022/09/01 06:34:18;;;;;;;23.53;21.30;;;20.10;99.90;;;;;;5039749;28;20663;-77
2022/09/01 06:36:46;;;;;;;23.30;21.33;;;19.80;99.90;;;;;;5041745;28;20202;-78
2022/09/01 06:39:18;;;;;;;30.13;27.97;;;19.60;99.90;;;;;;5042166;28;20274;-77
2022/09/01 06:41:51;;;;;;;41.43;38.63;;;19.20;99.90;;;;;;5039113;28;20659;-77
2022/09/01 06:44:21;;;;;;;43.17;40.13;;;18.90;99.90;;;;;;5036981;28;20567;-78
2022/09/01 06:46:49;;;;;;;41.10;38.07;;;18.70;99.90;;;;;;5035262;28;20195;-77
2022/09/01 06:49:14;;;;;;;30.00;27.60;;;18.60;99.90;;;;;;5037807;28;20172;-78
2022/09/01 06:51:40;;;;;;;31.40;28.80;;;18.60;99.90;;;;;;5037433;28;20185;-78
2022/09/01 06:54:06;;;;;;;31.37;29.20;;;18.80;99.90;;;;;;5036893;28;20270;-79
2022/09/01 06:56:33;;;;;;;44.07;41.20;;;19.10;99.90;;;;;;5035050;28;20210;-78
2022/09/01 06:59:04;;;;;;;49.57;46.17;;;19.50;99.90;;;;;;5034226;28;20225;-78
2022/09/01 07:01:31;;;;;;;25.73;23.70;;;19.90;99.90;;;;;;5035604;28;20675;-79
2022/09/01 07:03:57;;;;;;;14.07;12.83;;;20.60;99.90;;;;;;5036138;28;20179;-78
2022/09/01 07:06:26;;;;;;;14.43;13.17;;;21.10;99.90;;;;;;5035652;28;20202;-78
2022/09/01 07:09:00;;;;;;;30.15;28.02;;;21.50;99.90;;;;;;5034476;28;20175;-78
2022/09/01 07:11:29;;;;;;;323.73;307.20;;;22.00;99.90;;;;;;5037058;28;20186;-79
2022/09/01 07:14:00;;;;;;;216.70;205.37;;;22.30;99.90;;;;;;5035251;28;20187;-78
2022/09/01 07:16:28;;;;;;;88.38;83.20;;;22.50;99.90;;;;;;5036817;28;20206;-78
2022/09/01 07:18:59;;;;;;;23.25;21.70;;;23.10;99.90;;;;;;5036541;28;20553;-78
2022/09/01 07:21:26;;;;;;;21.00;19.45;;;23.60;99.90;;;;;;5040341;28;20218;-78
2022/09/01 07:23:52;;;;;;;18.77;17.38;;;23.70;99.90;;;;;;5035912;28;20183;-78
2022/09/01 07:26:18;;;;;;;21.70;19.95;;;23.20;99.90;;;;;;5034433;28;20255;-78
2022/09/01 07:28:45;;;;;;;25.67;23.83;;;23.00;99.90;;;;;;5039175;28;20183;-78
2022/09/01 07:31:20;;;;;;;23.85;22.20;;;22.80;99.90;;;;;;5039082;28;20179;-78
2022/09/01 07:33:48;;;;;;;17.77;16.45;;;23.00;99.90;;;;;;5036988;28;20178;-78
2022/09/01 07:36:15;;;;;;;19.02;17.65;;;23.70;99.90;;;;;;5035829;28;20199;-78
2022/09/01 07:38:42;;;;;;;20.25;18.75;;;23.70;99.90;;;;;;5034786;28;20595;-78
2022/09/01 07:41:11;;;;;;;22.00;20.35;;;23.50;99.90;;;;;;5037816;28;20706;-79
2022/09/01 07:43:43;;;;;;;29.05;27.13;;;23.40;99.90;;;;;;5035830;28;20262;-79
2022/09/01 07:46:11;;;;;;;19.63;18.13;;;23.20;99.90;;;;;;5036336;28;20183;-78
2022/09/01 07:48:37;;;;;;;20.80;19.27;;;23.30;99.90;;;;;;5034338;28;20229;-78
2022/09/01 07:51:03;;;;;;;24.15;22.55;;;23.50;99.90;;;;;;5035468;28;20191;-78
2022/09/01 07:53:32;;;;;;;34.55;31.70;;;24.00;99.90;;;;;;5037006;28;20183;-79
2022/09/01 07:56:09;;;;;;;52.97;50.10;;;24.10;99.90;;;;;;5035505;28;20244;-79
2022/09/01 07:58:37;;;;;;;37.10;34.55;;;24.00;99.90;;;;;;5035403;28;20190;-79
2022/09/01 08:01:12;;;;;;;38.70;36.38;;;23.70;99.90;;;;;;5034705;28;20209;-79
2022/09/01 08:03:39;;;;;;;31.27;29.42;;;23.60;99.90;;;;;;5036183;28;20189;-78
2022/09/01 08:06:09;;;;;;;19.92;18.50;;;23.40;99.90;;;;;;5038113;28;20205;-79
2022/09/01 08:08:38;;;;;;;16.88;15.48;;;23.10;99.90;;;;;;5037853;28;20282;-79
2022/09/01 08:11:05;;;;;;;18.15;17.02;;;23.00;99.90;;;;;;5036940;28;20651;-79
2022/09/01 08:13:37;;;;;;;13.98;12.93;;;23.20;99.90;;;;;;5037751;28;20179;-78
2022/09/01 08:16:04;;;;;;;13.60;12.50;;;23.00;99.90;;;;;;5041101;28;20183;-79
2022/09/01 08:18:31;;;;;;;13.27;12.30;;;22.90;99.90;;;;;;5039744;28;20182;-79
2022/09/01 08:20:57;;;;;;;20.13;18.95;;;22.70;99.90;;;;;;5037269;28;20238;-79
2022/09/01 08:23:25;;;;;;;28.75;27.10;;;22.70;99.90;;;;;;5036246;28;20557;-79
2022/09/01 08:25:52;;;;;;;19.52;18.33;;;22.70;99.90;;;;;;5035916;28;20651;-79
2022/09/01 08:28:19;;;;;;;53.30;50.50;;;22.40;99.90;;;;;;5033939;28;20548;-79
2022/09/01 08:30:47;;;;;;;80.13;75.97;;;22.30;99.90;;;;;;5033538;28;20187;-79
2022/09/01 08:33:13;;;;;;;70.20;66.63;;;22.00;99.90;;;;;;5032560;28;20249;-79
2022/09/01 08:35:46;;;;;;;66.38;62.75;;;21.90;99.90;;;;;;5032958;28;20189;-78
2022/09/01 08:38:12;;;;;;;63.53;60.23;;;22.00;99.90;;;;;;5032347;28;20210;-78
2022/09/01 08:40:40;;;;;;;55.13;52.30;;;22.00;99.90;;;;;;5033432;28;20638;-78
2022/09/01 08:43:27;;;;;;;63.70;60.50;;;21.60;99.90;;;;;;5033156;28;20244;-78
2022/09/01 08:45:56;;;;;;;76.30;72.37;;;21.30;99.90;;;;;;5033306;28;20189;-79
2022/09/01 08:48:41;;;;;;;87.27;82.93;;;21.30;99.90;;;;;;5033315;28;20183;-79
2022/09/01 08:51:18;;;;;;;104.07;98.97;;;21.10;99.90;;;;;;5036993;28;20186;-79
2022/09/01 08:53:58;;;;;;;104.45;99.32;;;21.20;99.90;;;;;;5034059;28;20194;-79
2022/09/01 08:56:25;;;;;;;103.00;97.75;;;21.60;99.90;;;;;;5035720;28;20695;-79
2022/09/01 08:58:51;;;;;;;98.97;94.13;;;21.60;99.90;;;;;;5034942;28;20213;-79
2022/09/01 09:01:33;;;;;;;93.18;88.53;;;21.80;99.90;;;;;;5034838;28;20214;-79
2022/09/01 09:04:12;;;;;;;82.82;78.57;;;21.90;99.90;;;;;;5035393;28;20183;-78
2022/09/01 09:07:00;;;;;;;62.60;59.38;;;22.00;99.90;;;;;;5036829;28;20195;-79
2022/09/01 09:09:40;;;;;;;60.40;57.30;;;22.10;99.90;;;;;;5035641;28;20179;-79
2022/09/01 09:12:39;;;;;;;80.25;76.07;;;22.50;99.90;;;;;;5033980;28;20179;-79
2022/09/01 09:15:24;;;;;;;89.25;84.85;;;22.80;99.90;;;;;;5014345;28;20201;-79
2022/09/01 09:17:59;;;;;;;65.35;62.05;;;22.80;99.90;;;;;;5032968;28;20272;-79
2022/09/01 09:20:26;;;;;;;13.00;12.20;;;23.20;99.90;;;;;;5035018;28;20216;-79
2022/09/01 09:22:55;;;;;;;13.65;12.90;;;23.10;99.90;;;;;;5033953;28;20257;-79
2022/09/01 09:25:23;;;;;;;30.83;28.95;;;23.80;99.90;;;;;;5032060;28;20182;-79
2022/09/01 09:27:50;;;;;;;41.05;38.92;;;24.40;99.90;;;;;;5031863;28;20203;-79
2022/09/01 09:30:21;;;;;;;27.95;26.45;;;24.20;99.90;;;;;;5032927;28;20183;-79
2022/09/01 09:32:52;;;;;;;30.00;28.40;;;24.20;99.90;;;;;;5033690;28;20198;-80
2022/09/01 09:35:21;;;;;;;28.75;27.27;;;23.60;99.90;;;;;;5038466;28;20179;-78
2022/09/01 09:37:47;;;;;;;33.38;31.67;;;23.20;99.90;;;;;;5034709;28;20679;-80
2022/09/01 09:40:19;;;;;;;26.60;25.23;;;23.40;99.90;;;;;;5037064;28;20236;-79
2022/09/01 09:42:54;;;;;;;26.83;25.38;;;23.30;99.90;;;;;;5038659;28;20182;-79
2022/09/01 09:45:47;;;;;;;22.25;21.08;;;23.10;99.90;;;;;;5038066;28;20266;-78
2022/09/01 09:48:32;;;;;;;12.02;11.27;;;22.90;99.90;;;;;;5032801;28;20713;-79
2022/09/01 09:51:21;;;;;;;9.57;9.07;;;22.80;99.90;;;;;;5034062;28;20560;-79
2022/09/01 09:53:48;;;;;;;19.17;18.08;;;22.40;99.90;;;;;;5033332;28;20182;-79
2022/09/01 09:58:48;;;;;;;57.53;54.63;;;22.10;99.90;;;;;;5040735;28;20207;-85
2022/09/01 10:01:27;;;;;;;88.95;84.57;;;22.10;99.90;;;;;;5034748;28;20211;-86
2022/09/01 10:03:56;;;;;;;57.90;55.00;;;22.50;99.90;;;;;;5055232;28;20232;-85
2022/09/01 10:06:44;;;;;;;15.13;14.23;;;22.90;99.90;;;;;;5040103;28;20189;-85
2022/09/01 10:09:36;;;;;;;14.32;13.45;;;23.30;99.90;;;;;;5034941;28;20191;-85
2022/09/01 10:12:04;;;;;;;30.88;29.25;;;24.10;99.90;;;;;;5045832;28;20179;-85
2022/09/01 10:14:40;;;;;;;27.65;26.13;;;24.60;99.90;;;;;;5036125;28;20175;-85
2022/09/01 10:17:12;;;;;;;24.80;23.45;;;24.60;99.90;;;;;;5033959;28;20206;-85
2022/09/01 10:19:43;;;;;;;27.02;25.52;;;24.10;99.90;;;;;;5036839;28;20219;-85
2022/09/01 10:22:09;;;;;;;28.02;26.25;;;23.70;99.90;;;;;;5040299;28;20187;-85
2022/09/01 10:24:37;;;;;;;27.60;26.10;;;23.00;99.90;;;;;;5051895;28;20647;-85
2022/09/01 10:27:15;;;;;;;26.52;25.15;;;23.00;99.90;;;;;;5033856;28;20203;-85
2022/09/01 10:30:09;;;;;;;16.05;15.07;;;22.80;99.90;;;;;;5035733;28;20655;-85
2022/09/01 10:32:51;;;;;;;9.23;8.63;;;22.60;99.90;;;;;;5035014;28;20261;-85
2022/09/01 10:35:23;;;;;;;10.05;9.45;;;22.50;99.90;;;;;;5035703;28;20202;-85
2022/09/01 10:37:50;;;;;;;21.45;20.25;;;22.20;99.90;;;;;;5033538;28;20202;-85
2022/09/01 10:40:27;;;;;;;20.13;18.92;;;22.30;99.90;;;;;;5033933;28;20207;-86
2022/09/01 10:42:55;;;;;;;13.43;12.63;;;22.40;99.90;;;;;;5034180;28;20266;-86
2022/09/01 10:45:34;;;;;;;16.58;15.55;;;22.90;99.90;;;;;;5033850;28;20721;-86
2022/09/01 10:48:19;;;;;;;27.08;25.73;;;23.80;99.90;;;;;;5030673;28;20203;-86
2022/09/01 10:50:54;;;;;;;23.75;22.13;;;24.50;99.90;;;;;;5032798;28;20183;-86
2022/09/01 10:53:32;;;;;;;18.80;17.58;;;24.70;99.90;;;;;;5032742;28;20210;-86
2022/09/01 10:56:15;;;;;;;7.30;6.90;;;24.80;99.90;;;;;;5031916;28;20262;-86
2022/09/01 10:59:05;;;;;;;8.13;7.60;;;26.00;99.90;;;;;;5040727;28;20214;-86
2022/09/01 11:01:40;;;;;;;8.70;8.13;;;27.10;99.90;;;;;;5058403;28;20229;-86
2022/09/01 11:04:12;;;;;;;6.32;5.93;;;27.30;99.90;;;;;;5053087;28;20186;-86
2022/09/01 11:06:40;;;;;;;5.93;5.43;;;27.70;99.90;;;;;;5052145;28;20229;-86
2022/09/01 11:09:15;;;;;;;6.35;5.57;;;27.90;98.70;;;;;;5039928;28;20209;-85
2022/09/01 11:11:46;;;;;;;7.57;6.90;;;27.10;99.00;;;;;;5038055;28;20182;-86
2022/09/01 11:14:21;;;;;;;6.85;6.25;;;26.40;99.90;;;;;;5035857;28;20190;-86
2022/09/01 11:17:11;;;;;;;7.68;7.18;;;26.50;99.90;;;;;;5034824;28;20672;-86
2022/09/01 11:19:54;;;;;;;7.40;6.80;;;26.40;99.90;;;;;;5033460;28;20203;-86
2022/09/01 11:22:32;;;;;;;5.45;5.22;;;26.20;99.90;;;;;;5035190;28;20183;-86
2022/09/01 11:25:37;;;;;;;6.53;6.13;;;26.00;99.90;;;;;;5035202;28;20182;-86
2022/09/01 11:28:05;;;;;;;6.97;6.57;;;25.20;99.90;;;;;;5033120;28;20618;-86
2022/09/01 11:30:33;;;;;;;6.20;5.90;;;25.20;99.90;;;;;;5033613;28;20175;-86
2022/09/01 11:33:08;;;;;;;7.38;6.90;;;26.40;99.40;;;;;;5035173;28;20237;-86
2022/09/01 11:35:34;;;;;;;6.07;5.78;;;26.40;99.20;;;;;;5035276;28;20193;-86
2022/09/01 11:38:06;;;;;;;7.55;7.05;;;25.80;99.50;;;;;;5041367;28;20289;-85
2022/09/01 11:40:34;;;;;;;9.25;8.48;;;25.90;99.60;;;;;;5040529;28;20268;-86
2022/09/01 11:43:06;;;;;;;6.88;6.32;;;25.90;99.70;;;;;;5039148;28;20170;-86
2022/09/01 11:45:38;;;;;;;7.28;6.85;;;26.50;98.50;;;;;;5055034;28;20206;-86
2022/09/01 11:48:11;;;;;;;6.03;5.60;;;27.30;98.40;;;;;;5050315;28;20205;-86
2022/09/01 11:50:40;;;;;;;6.20;5.70;;;28.20;96.10;;;;;;5039628;28;20214;-85
2022/09/01 11:53:13;;;;;;;5.68;5.38;;;28.30;95.10;;;;;;5037654;28;20269;-85
2022/09/01 11:55:41;;;;;;;5.90;5.50;;;27.70;95.80;;;;;;5039376;28;20644;-86
2022/09/01 11:58:12;;;;;;;5.38;5.00;;;27.60;96.10;;;;;;5042535;28;20225;-86
2022/09/01 12:00:41;;;;;;;5.75;5.35;;;27.70;95.50;;;;;;5033539;28;20214;-86
2022/09/01 12:03:25;;;;;;;7.80;6.32;;;27.20;96.10;;;;;;5033476;28;20551;-86
2022/09/01 12:06:02;;;;;;;7.97;7.47;;;26.40;96.90;;;;;;5033515;28;20270;-86
2022/09/01 12:08:41;;;;;;;8.10;7.50;;;25.60;98.00;;;;;;5032397;28;20688;-85
2022/09/01 12:11:18;;;;;;;6.88;6.47;;;24.20;99.90;;;;;;5034228;28;20182;-85
2022/09/01 12:13:56;;;;;;;8.00;7.55;;;23.80;99.90;;;;;;5053018;28;20233;-86
2022/09/01 12:16:22;;;;;;;9.68;9.05;;;24.40;99.90;;;;;;5043125;28;20188;-84
2022/09/01 12:18:50;;;;;;;9.27;8.77;;;25.30;99.90;;;;;;5033689;28;20178;-86
2022/09/01 12:21:33;;;;;;;7.97;7.47;;;26.30;97.70;;;;;;5034779;28;20217;-85
2022/09/01 12:24:34;;;;;;;8.13;7.63;;;26.20;97.60;;;;;;5036361;28;20270;-86
2022/09/01 12:27:00;;;;;;;7.85;7.35;;;26.00;97.10;;;;;;5026598;28;20215;-86
2022/09/01 12:29:28;;;;;;;6.95;6.55;;;26.20;97.10;;;;;;5032905;28;20179;-85
2022/09/01 12:31:55;;;;;;;4.85;4.65;;;27.50;95.40;;;;;;5039189;28;20179;-86
2022/09/01 12:34:33;;;;;;;5.53;5.18;;;28.30;93.30;;;;;;5042151;28;20244;-86
2022/09/01 12:37:10;;;;;;;11.45;10.93;;;29.10;91.60;;;;;;5034058;28;20286;-86
2022/09/01 12:39:41;;;;;;;9.18;8.68;;;28.00;90.60;;;;;;5034547;28;20230;-85
2022/09/01 12:42:28;;;;;;;5.25;4.95;;;27.00;92.50;;;;;;5034008;28;20175;-86
2022/09/01 12:45:06;;;;;;;4.88;4.68;;;26.90;93.30;;;;;;5035990;28;20179;-86
2022/09/01 12:47:32;;;;;;;7.05;6.50;;;26.80;93.20;;;;;;5033706;28;20207;-86
2022/09/01 12:50:03;;;;;;;8.27;7.88;;;27.90;91.90;;;;;;5043285;28;20573;-86
2022/09/01 12:52:32;;;;;;;16.05;14.95;;;29.20;90.30;;;;;;5044273;28;20201;-86
2022/09/01 12:54:58;;;;;;;14.68;13.98;;;29.30;89.40;;;;;;5055806;28;20178;-86